Time;durP1;ratioP1;P1;durP2;ratioP2;P2;SDS_P1;SDS_P2;PMS_P1;PMS_P2;Temp;Humidity;BMP_temperature;BMP_pressure;BME280_temperature;BME280_humidity;BME280_pressure;Samples;Min_cycle;Max_cycle;Signal;HPM_P1;HPM_P2
2021/06/13 00:02:04;;;;;;;1.55;0.70;;;11.70;99.90;;;;;;5047381;28;20396;-85
2021/06/13 00:04:32;;;;;;;1.53;0.60;;;11.70;99.90;;;;;;5048007;28;20396;-82
2021/06/13 00:06:59;;;;;;;1.02;0.60;;;11.70;99.90;;;;;;5046626;28;21270;-84
2021/06/13 00:09:26;;;;;;;1.40;0.80;;;11.80;99.90;;;;;;5049235;28;20388;-84
2021/06/13 00:11:53;;;;;;;1.30;0.60;;;12.00;99.90;;;;;;5049807;28;20889;-84
2021/06/13 00:14:24;;;;;;;1.20;0.70;;;12.20;99.90;;;;;;5048684;28;20388;-85
2021/06/13 00:16:52;;;;;;;1.65;0.70;;;12.50;99.90;;;;;;5048340;28;20411;-84
2021/06/13 00:19:19;;;;;;;0.50;0.50;;;13.20;99.90;;;;;;5045008;28;20471;-84
2021/06/13 00:21:48;;;;;;;1.27;0.50;;;14.50;99.90;;;;;;5048990;28;20426;-84
2021/06/13 00:24:15;;;;;;;0.90;0.52;;;14.90;98.90;;;;;;5044549;28;20755;-83
2021/06/13 00:26:42;;;;;;;1.10;0.60;;;14.70;98.00;;;;;;5039454;28;20398;-85
2021/06/13 00:29:09;;;;;;;0.98;0.40;;;14.40;99.20;;;;;;5047839;28;20522;-83
2021/06/13 00:31:36;;;;;;;0.70;0.40;;;14.00;99.70;;;;;;5048162;28;20415;-84
2021/06/13 00:34:03;;;;;;;1.60;0.55;;;13.60;99.90;;;;;;5046999;28;20403;-84
2021/06/13 00:36:30;;;;;;;0.70;0.55;;;13.30;99.90;;;;;;5048339;28;20419;-87
2021/06/13 00:38:58;;;;;;;1.30;0.60;;;13.10;99.90;;;;;;5053898;28;20887;-85
2021/06/13 00:41:25;;;;;;;1.30;0.63;;;13.00;99.90;;;;;;5049334;28;20395;-87
2021/06/13 00:43:52;;;;;;;1.35;0.70;;;12.90;99.90;;;;;;5046284;28;20383;-86
2021/06/13 00:46:19;;;;;;;1.20;0.80;;;12.80;99.90;;;;;;5047517;28;20478;-84
2021/06/13 00:48:46;;;;;;;1.00;0.70;;;12.80;99.90;;;;;;5048067;28;20399;-86
2021/06/13 00:51:13;;;;;;;1.10;0.65;;;12.80;99.90;;;;;;5046401;28;20403;-84
2021/06/13 00:53:40;;;;;;;0.70;0.70;;;12.80;99.90;;;;;;5046966;28;20392;-86
2021/06/13 00:56:07;;;;;;;2.33;1.00;;;12.80;99.90;;;;;;5047677;28;20402;-86
2021/06/13 00:58:35;;;;;;;1.70;0.73;;;12.90;99.90;;;;;;5046585;28;20490;-88
2021/06/13 01:01:02;;;;;;;1.27;0.60;;;12.90;99.90;;;;;;5046907;28;20407;-88
2021/06/13 01:03:29;;;;;;;1.20;0.70;;;12.90;99.90;;;;;;5046641;28;20404;-84
2021/06/13 01:05:56;;;;;;;0.75;0.60;;;12.90;99.90;;;;;;5045321;28;20388;-85
2021/06/13 01:08:30;;;;;;;1.13;0.70;;;12.90;99.90;;;;;;5050509;28;20473;-87
2021/06/13 01:11:31;;;;;;;0.88;0.70;;;12.90;99.90;;;;;;5051619;28;20867;-88
2021/06/13 01:14:12;;;;;;;0.95;0.60;;;13.00;99.90;;;;;;5050238;28;20811;-88
2021/06/13 01:17:02;;;;;;;1.80;0.75;;;13.00;99.90;;;;;;5049176;28;20496;-85
2021/06/13 01:19:47;;;;;;;2.72;1.00;;;13.10;99.90;;;;;;5049216;28;20896;-86
2021/06/13 01:22:37;;;;;;;1.15;0.65;;;13.20;99.90;;;;;;5051332;28;20445;-84
2021/06/13 01:25:30;;;;;;;0.88;0.70;;;13.20;99.90;;;;;;5050945;28;20392;-84
2021/06/13 01:28:20;;;;;;;1.77;0.80;;;13.30;99.90;;;;;;5039474;28;20475;-86
2021/06/13 01:30:48;;;;;;;2.10;0.70;;;13.30;99.90;;;;;;5050116;28;20403;-88
2021/06/13 01:33:16;;;;;;;1.55;0.70;;;13.30;99.90;;;;;;5050355;28;20418;-86
2021/06/13 01:35:45;;;;;;;1.67;0.47;;;13.30;99.90;;;;;;5051829;28;20874;-86
2021/06/13 01:38:15;;;;;;;1.08;0.50;;;13.40;99.90;;;;;;5051515;28;20419;-84
2021/06/13 01:40:42;;;;;;;0.90;0.50;;;13.40;99.90;;;;;;5051529;28;20376;-84
2021/06/13 01:43:12;;;;;;;3.83;0.68;;;13.50;99.90;;;;;;5051586;28;20379;-84
2021/06/13 01:45:41;;;;;;;0.75;0.50;;;13.50;99.90;;;;;;5049600;28;21252;-86
2021/06/13 01:48:11;;;;;;;0.80;0.35;;;13.60;99.40;;;;;;5051641;28;20801;-85
2021/06/13 01:50:39;;;;;;;0.50;0.50;;;13.60;99.50;;;;;;5051234;28;20376;-84
2021/06/13 01:53:17;;;;;;;1.30;0.70;;;13.60;99.30;;;;;;5049217;28;20400;-85
2021/06/13 01:55:49;;;;;;;1.20;0.60;;;13.70;99.30;;;;;;5051500;28;20375;-85
2021/06/13 01:58:19;;;;;;;1.00;0.47;;;13.60;99.70;;;;;;5051018;28;20833;-85
2021/06/13 02:00:48;;;;;;;0.85;0.55;;;13.60;99.60;;;;;;5050470;28;20908;-84
2021/06/13 02:03:16;;;;;;;1.52;0.50;;;13.80;99.90;;;;;;5051011;28;20461;-83
2021/06/13 02:05:47;;;;;;;0.65;0.50;;;13.80;99.30;;;;;;5049835;28;20388;-85
2021/06/13 02:08:14;;;;;;;1.83;0.70;;;13.90;99.80;;;;;;5050836;28;20749;-84
2021/06/13 02:10:42;;;;;;;1.73;0.57;;;14.00;99.80;;;;;;5051278;28;20433;-87
2021/06/13 02:13:13;;;;;;;2.50;0.60;;;14.10;99.70;;;;;;5048489;28;20828;-81
2021/06/13 02:15:41;;;;;;;1.00;0.50;;;14.10;99.20;;;;;;5049490;28;20441;-83
2021/06/13 02:18:09;;;;;;;1.30;0.50;;;14.10;98.50;;;;;;5049347;28;20504;-83
2021/06/13 02:20:38;;;;;;;1.27;0.50;;;14.10;99.50;;;;;;5046372;28;20399;-83
2021/06/13 02:23:05;;;;;;;1.37;1.10;;;14.20;98.80;;;;;;5049045;28;20484;-83
2021/06/13 02:25:32;;;;;;;0.75;0.70;;;14.20;98.80;;;;;;5052203;28;20396;-84
2021/06/13 02:28:02;;;;;;;2.00;0.80;;;14.20;99.30;;;;;;5048780;28;20478;-84
2021/06/13 02:30:33;;;;;;;6.35;4.55;;;14.30;99.40;;;;;;5051065;28;20399;-83
2021/06/13 02:33:01;;;;;;;13.60;9.75;;;14.40;99.60;;;;;;5049323;28;20465;-82
2021/06/13 02:35:28;;;;;;;4.47;2.80;;;14.40;98.60;;;;;;5044932;28;20493;-82
2021/06/13 02:37:58;;;;;;;1.60;1.30;;;14.50;99.10;;;;;;5037289;28;20392;-81
2021/06/13 02:40:26;;;;;;;0.73;0.65;;;14.60;98.70;;;;;;5048706;28;20388;-83
2021/06/13 02:42:54;;;;;;;1.27;0.77;;;14.70;98.80;;;;;;5049003;28;20398;-82
2021/06/13 02:45:22;;;;;;;2.05;0.57;;;14.60;97.90;;;;;;5045537;28;20396;-81
2021/06/13 02:47:50;;;;;;;1.05;0.45;;;14.70;98.60;;;;;;5049288;28;20442;-82
2021/06/13 02:50:21;;;;;;;0.60;0.60;;;14.60;98.10;;;;;;5049610;28;20902;-82
2021/06/13 02:52:55;;;;;;;0.85;0.55;;;14.70;98.40;;;;;;5049130;28;20473;-82
2021/06/13 02:55:34;;;;;;;1.50;0.52;;;14.70;97.80;;;;;;5046753;28;20465;-82
2021/06/13 02:58:12;;;;;;;1.40;0.40;;;14.70;98.70;;;;;;5049519;28;20874;-82
2021/06/13 03:00:39;;;;;;;0.65;0.45;;;14.70;98.30;;;;;;5047806;28;20921;-84
2021/06/13 03:03:06;;;;;;;0.43;0.33;;;14.80;98.20;;;;;;5049883;28;20466;-81
2021/06/13 03:05:33;;;;;;;0.80;0.50;;;14.90;97.30;;;;;;5049832;28;20375;-82
2021/06/13 03:08:01;;;;;;;2.17;0.40;;;14.90;97.50;;;;;;5049407;28;20419;-82
2021/06/13 03:10:28;;;;;;;1.70;0.80;;;15.00;97.30;;;;;;5043948;28;20819;-82
2021/06/13 03:12:58;;;;;;;1.30;0.50;;;15.00;97.40;;;;;;5049538;28;20376;-83
2021/06/13 03:15:27;;;;;;;1.23;0.50;;;15.10;97.30;;;;;;5049434;28;20367;-82
2021/06/13 03:17:56;;;;;;;1.00;0.60;;;15.10;97.40;;;;;;5049211;28;20403;-82
2021/06/13 03:20:23;;;;;;;0.93;0.60;;;15.10;97.30;;;;;;5054175;28;20485;-82
2021/06/13 03:22:50;;;;;;;1.35;0.50;;;15.10;97.30;;;;;;5048934;28;20479;-82
2021/06/13 03:25:19;;;;;;;1.30;0.50;;;15.20;97.20;;;;;;5056442;28;20394;-83
2021/06/13 03:27:47;;;;;;;1.20;0.68;;;15.10;97.40;;;;;;5053202;28;20393;-83
2021/06/13 03:30:15;;;;;;;0.60;0.40;;;15.10;96.90;;;;;;5062497;28;20372;-83
2021/06/13 03:32:42;;;;;;;1.90;0.40;;;15.20;97.40;;;;;;5049960;28;20399;-83
2021/06/13 03:35:10;;;;;;;1.27;0.43;;;15.20;96.70;;;;;;5047036;28;20480;-83
2021/06/13 03:37:38;;;;;;;0.68;0.43;;;15.20;96.90;;;;;;5048677;28;20408;-82
2021/06/13 03:40:06;;;;;;;1.20;0.60;;;15.20;96.80;;;;;;5036466;28;20753;-83
2021/06/13 03:42:34;;;;;;;2.58;0.80;;;15.20;96.50;;;;;;5047037;28;20399;-82
2021/06/13 03:45:02;;;;;;;1.20;0.50;;;15.20;96.60;;;;;;5048155;28;20391;-83
2021/06/13 03:47:32;;;;;;;0.90;0.50;;;15.20;96.80;;;;;;5047353;28;20395;-82
2021/06/13 03:50:00;;;;;;;0.93;0.50;;;15.20;96.70;;;;;;5047699;28;20400;-82
2021/06/13 03:52:28;;;;;;;1.20;0.70;;;15.30;96.90;;;;;;5044344;28;20468;-83
2021/06/13 03:54:56;;;;;;;1.85;0.60;;;15.40;97.50;;;;;;5046864;28;20893;-82
2021/06/13 03:57:24;;;;;;;1.27;0.85;;;15.40;96.70;;;;;;5038665;28;20450;-84
2021/06/13 03:59:53;;;;;;;1.50;0.50;;;15.40;96.90;;;;;;5046517;28;20395;-82
2021/06/13 04:02:21;;;;;;;0.70;0.70;;;15.40;97.80;;;;;;5044081;28;20441;-82
2021/06/13 04:04:51;;;;;;;1.20;0.60;;;15.30;96.90;;;;;;5040542;28;20411;-84
2021/06/13 04:07:20;;;;;;;2.22;0.70;;;15.30;97.30;;;;;;5037914;28;20920;-83
2021/06/13 04:09:47;;;;;;;1.45;0.63;;;15.30;96.70;;;;;;5046240;28;20448;-82
2021/06/13 04:12:17;;;;;;;1.48;0.60;;;15.30;96.90;;;;;;5032336;28;20397;-83
2021/06/13 04:14:49;;;;;;;1.00;0.60;;;15.40;97.00;;;;;;5040566;28;20407;-83
2021/06/13 04:17:19;;;;;;;0.98;0.70;;;15.30;96.70;;;;;;5047249;28;20749;-82
2021/06/13 04:19:47;;;;;;;0.70;0.70;;;15.40;97.10;;;;;;5054917;28;20386;-85
2021/06/13 04:22:18;;;;;;;0.90;0.55;;;15.30;97.00;;;;;;5048627;28;20406;-84
2021/06/13 04:24:47;;;;;;;1.30;0.50;;;15.30;97.80;;;;;;5047782;28;20387;-84
2021/06/13 04:27:17;;;;;;;2.90;0.73;;;15.30;96.30;;;;;;5049807;28;20402;-83
2021/06/13 04:29:44;;;;;;;2.97;0.68;;;15.30;96.60;;;;;;5047449;28;20392;-84
2021/06/13 04:32:12;;;;;;;1.90;0.65;;;15.30;96.70;;;;;;5048325;28;20392;-84
2021/06/13 04:34:39;;;;;;;1.50;0.50;;;15.30;97.00;;;;;;5048454;28;20424;-83
2021/06/13 04:37:08;;;;;;;2.95;0.80;;;15.30;97.20;;;;;;5048454;28;20914;-85
2021/06/13 04:39:35;;;;;;;0.82;0.57;;;15.30;97.20;;;;;;5048740;28;20377;-83
2021/06/13 04:42:04;;;;;;;2.10;0.55;;;15.30;97.20;;;;;;5050806;28;20376;-83
2021/06/13 04:44:32;;;;;;;1.75;0.43;;;15.30;97.60;;;;;;5052404;28;20375;-85
2021/06/13 04:46:59;;;;;;;0.60;0.40;;;15.20;97.30;;;;;;5051858;28;21127;-83
2021/06/13 04:49:26;;;;;;;1.17;0.45;;;15.30;97.20;;;;;;5051037;28;20782;-85
2021/06/13 04:51:57;;;;;;;2.53;0.63;;;15.20;96.60;;;;;;5052052;28;20383;-86
2021/06/13 04:54:28;;;;;;;0.98;0.50;;;15.10;96.80;;;;;;5051802;28;20777;-82
2021/06/13 04:57:19;;;;;;;0.60;0.40;;;15.10;96.50;;;;;;5030550;28;20440;-82
2021/06/13 04:59:46;;;;;;;1.05;0.60;;;15.10;96.40;;;;;;5032217;28;20444;-83
2021/06/13 05:02:14;;;;;;;0.77;0.50;;;15.10;96.60;;;;;;5032156;28;20447;-82
2021/06/13 05:04:41;;;;;;;0.70;0.40;;;15.00;96.80;;;;;;5032257;28;20457;-83
2021/06/13 05:07:08;;;;;;;1.48;0.50;;;15.00;97.50;;;;;;5032063;28;20377;-83
2021/06/13 05:09:35;;;;;;;0.88;0.40;;;15.00;97.60;;;;;;5032073;28;20399;-82
2021/06/13 05:12:03;;;;;;;1.70;0.80;;;15.00;97.10;;;;;;5036721;28;20367;-83
2021/06/13 05:14:30;;;;;;;1.50;0.75;;;14.90;96.30;;;;;;5051915;28;20382;-83
2021/06/13 05:16:57;;;;;;;1.63;0.80;;;15.00;97.30;;;;;;5051805;28;20898;-82
2021/06/13 05:19:24;;;;;;;1.55;1.30;;;14.90;97.70;;;;;;5051468;28;20383;-81
2021/06/13 05:21:51;;;;;;;2.28;0.98;;;14.80;97.80;;;;;;5051489;28;20392;-80
2021/06/13 05:24:18;;;;;;;1.83;0.90;;;14.80;98.40;;;;;;5051680;28;20858;-81
2021/06/13 05:26:45;;;;;;;1.73;0.95;;;14.70;98.10;;;;;;5051744;28;20368;-80
2021/06/13 05:29:12;;;;;;;2.33;1.08;;;14.60;98.20;;;;;;5051189;28;20460;-81
2021/06/13 05:31:39;;;;;;;1.70;1.20;;;14.60;98.30;;;;;;5051296;28;20379;-81
2021/06/13 05:34:06;;;;;;;1.00;0.68;;;14.50;98.20;;;;;;5051105;28;20763;-80
2021/06/13 05:36:33;;;;;;;1.60;0.90;;;14.50;97.40;;;;;;5035782;28;20402;-83
2021/06/13 05:39:00;;;;;;;1.40;0.90;;;14.50;97.60;;;;;;5031610;28;20451;-82
2021/06/13 05:41:27;;;;;;;1.00;0.80;;;14.40;99.00;;;;;;5031743;28;20373;-82
2021/06/13 05:43:54;;;;;;;1.30;1.20;;;14.30;98.90;;;;;;5031453;28;20401;-83
2021/06/13 05:46:22;;;;;;;1.90;1.25;;;14.30;99.20;;;;;;5031375;28;20377;-83
2021/06/13 05:48:49;;;;;;;1.67;1.48;;;14.30;98.10;;;;;;5038617;28;20433;-84
2021/06/13 05:51:16;;;;;;;1.52;1.42;;;14.30;98.20;;;;;;5049736;28;20774;-82
2021/06/13 05:53:43;;;;;;;1.80;1.50;;;14.20;98.60;;;;;;5050068;28;20442;-84
2021/06/13 05:56:10;;;;;;;1.77;1.50;;;14.20;97.90;;;;;;5051102;28;20463;-83
2021/06/13 05:58:37;;;;;;;2.13;1.60;;;14.20;99.10;;;;;;5052476;28;20421;-89
2021/06/13 06:01:04;;;;;;;2.57;1.87;;;14.10;99.20;;;;;;5052815;28;20415;-89
2021/06/13 06:03:31;;;;;;;1.83;1.35;;;14.00;99.90;;;;;;5053610;28;20391;-88
2021/06/13 06:05:58;;;;;;;15.25;10.70;;;13.90;99.90;;;;;;5054901;28;20399;-90
2021/06/13 06:08:28;;;;;;;3.55;2.72;;;13.80;99.90;;;;;;5054037;28;20478;-89
2021/06/13 06:10:55;;;;;;;2.10;1.90;;;13.70;99.90;;;;;;5055079;28;20386;-93
2021/06/13 06:13:22;;;;;;;2.17;1.75;;;13.60;99.90;;;;;;5054698;28;20442;-90
2021/06/13 06:15:51;;;;;;;1.70;1.38;;;13.60;99.90;;;;;;5054008;28;20380;-89
2021/06/13 06:18:18;;;;;;;1.92;1.10;;;13.50;99.90;;;;;;5057142;28;20795;-88
2021/06/13 06:20:45;;;;;;;1.20;1.10;;;13.40;99.90;;;;;;5061033;28;20452;-89
2021/06/13 06:23:12;;;;;;;0.73;0.73;;;13.30;99.90;;;;;;5054243;28;20419;-90
2021/06/13 06:25:39;;;;;;;3.08;1.10;;;13.30;99.90;;;;;;5053589;28;20371;-89
2021/06/13 06:28:06;;;;;;;1.50;1.00;;;13.20;99.90;;;;;;5054624;28;20376;-90
2021/06/13 06:30:33;;;;;;;1.30;0.90;;;13.10;99.90;;;;;;5053088;28;20403;-90
2021/06/13 06:33:00;;;;;;;1.30;0.90;;;13.10;99.90;;;;;;5053295;28;20387;-89
2021/06/13 06:35:27;;;;;;;1.00;0.80;;;13.00;99.90;;;;;;5054292;28;20425;-90
2021/06/13 06:37:55;;;;;;;1.17;0.85;;;12.90;99.90;;;;;;5053621;28;20403;-90
2021/06/13 06:40:22;;;;;;;2.78;1.27;;;12.80;99.90;;;;;;5064089;28;20486;-89
2021/06/13 06:42:49;;;;;;;1.03;0.80;;;12.80;99.90;;;;;;5070936;28;20385;-90
2021/06/13 06:45:16;;;;;;;1.40;1.00;;;12.70;99.90;;;;;;5074445;28;20837;-88
2021/06/13 06:47:43;;;;;;;2.38;0.98;;;12.60;99.90;;;;;;5067587;28;20382;-89
2021/06/13 06:50:11;;;;;;;1.30;1.00;;;12.50;99.90;;;;;;5058714;28;20453;-89
2021/06/13 06:52:39;;;;;;;1.53;1.00;;;12.50;99.90;;;;;;5052706;28;20384;-91
2021/06/13 06:55:08;;;;;;;1.95;1.15;;;12.40;99.90;;;;;;5064699;28;20387;-94
2021/06/13 06:57:37;;;;;;;1.40;0.95;;;12.30;99.90;;;;;;5055472;28;20407;-90
2021/06/13 07:00:10;;;;;;;1.13;0.90;;;12.30;99.90;;;;;;5054362;28;20379;-90
2021/06/13 07:02:37;;;;;;;1.48;1.08;;;12.30;99.90;;;;;;5054218;28;20404;-91
2021/06/13 07:05:05;;;;;;;1.10;0.88;;;12.20;99.90;;;;;;5054746;28;20417;-92
2021/06/13 07:07:32;;;;;;;0.82;0.80;;;12.10;99.90;;;;;;5057061;28;20833;-91
2021/06/13 07:09:59;;;;;;;0.80;0.80;;;12.10;99.90;;;;;;5049411;28;20396;-91
2021/06/13 07:12:26;;;;;;;2.10;1.00;;;12.00;99.90;;;;;;5054014;28;20973;-90
2021/06/13 07:14:54;;;;;;;1.38;0.95;;;12.00;99.90;;;;;;5054783;28;20856;-89
2021/06/13 07:17:22;;;;;;;1.90;0.90;;;12.00;99.90;;;;;;5049403;28;20712;-91
2021/06/13 07:19:49;;;;;;;1.90;0.80;;;11.90;99.90;;;;;;5054817;28;20392;-92
2021/06/13 07:22:16;;;;;;;2.97;1.05;;;11.80;99.90;;;;;;5054877;28;20376;-92
2021/06/13 07:24:43;;;;;;;3.28;1.10;;;11.80;99.90;;;;;;5055211;28;20442;-91
2021/06/13 07:27:10;;;;;;;2.28;1.48;;;11.70;99.90;;;;;;5055086;28;20442;-92
2021/06/13 07:29:38;;;;;;;1.80;1.30;;;11.60;99.90;;;;;;5054898;28;20429;-90
2021/06/13 07:32:05;;;;;;;2.55;1.52;;;11.60;99.90;;;;;;5054881;28;20383;-92
2021/06/13 07:34:32;;;;;;;3.20;1.80;;;11.60;99.90;;;;;;5059442;28;20404;-90
2021/06/13 07:37:02;;;;;;;2.20;1.88;;;11.60;99.90;;;;;;5051713;28;20400;-89
2021/06/13 07:39:30;;;;;;;4.22;3.78;;;11.50;99.90;;;;;;5050441;28;20408;-90
2021/06/13 07:41:58;;;;;;;3.97;3.50;;;11.40;99.90;;;;;;5053269;28;20387;-90
2021/06/13 07:44:27;;;;;;;5.50;4.40;;;11.40;99.90;;;;;;5053931;28;20394;-87
2021/06/13 07:46:55;;;;;;;6.97;5.47;;;11.30;99.90;;;;;;5051079;28;20396;-90
2021/06/13 07:49:22;;;;;;;5.80;4.93;;;11.30;99.90;;;;;;5047506;28;20394;-91
2021/06/13 07:51:49;;;;;;;6.28;4.88;;;11.30;99.90;;;;;;5052632;28;20494;-90
2021/06/13 07:54:16;;;;;;;6.25;4.10;;;11.20;99.90;;;;;;5052879;28;20410;-90
2021/06/13 07:56:43;;;;;;;4.57;3.60;;;11.20;99.90;;;;;;5053951;28;20446;-91
2021/06/13 07:59:10;;;;;;;4.50;3.40;;;11.20;99.90;;;;;;5052125;28;20404;-91
2021/06/13 08:01:37;;;;;;;4.70;3.30;;;11.10;99.90;;;;;;5053986;28;20392;-90
2021/06/13 08:04:05;;;;;;;3.75;2.95;;;11.10;99.90;;;;;;5052671;28;20485;-88
2021/06/13 08:06:32;;;;;;;3.90;2.78;;;11.00;99.90;;;;;;5051309;28;20400;-90
2021/06/13 08:09:00;;;;;;;3.78;2.78;;;11.00;99.90;;;;;;5050992;28;20412;-91
2021/06/13 08:11:28;;;;;;;4.32;2.60;;;10.90;99.90;;;;;;5054457;28;20376;-92
2021/06/13 08:13:55;;;;;;;3.92;2.40;;;10.90;99.90;;;;;;5055080;28;20408;-92
2021/06/13 08:16:23;;;;;;;3.40;2.23;;;10.80;99.90;;;;;;5058523;28;20536;-91
2021/06/13 08:18:50;;;;;;;4.03;2.15;;;10.80;99.90;;;;;;5061309;28;20383;-93
2021/06/13 08:21:17;;;;;;;3.00;2.42;;;10.70;99.90;;;;;;5054065;28;20383;-90
2021/06/13 08:23:44;;;;;;;3.50;2.50;;;10.70;99.90;;;;;;5054981;28;20379;-89
2021/06/13 08:26:11;;;;;;;3.22;2.40;;;10.70;99.90;;;;;;5053421;28;20379;-88
2021/06/13 08:28:38;;;;;;;4.43;2.63;;;10.70;99.90;;;;;;5056319;28;20379;-90
2021/06/13 08:31:05;;;;;;;4.07;2.70;;;10.70;99.90;;;;;;5057505;28;20490;-92
2021/06/13 08:33:33;;;;;;;4.23;2.53;;;10.70;99.90;;;;;;5058653;28;20398;-91
2021/06/13 08:36:00;;;;;;;3.58;2.63;;;10.60;99.90;;;;;;5057674;28;20385;-90
2021/06/13 08:38:27;;;;;;;4.30;2.60;;;10.60;99.90;;;;;;5057403;28;20494;-92
2021/06/13 08:40:56;;;;;;;4.30;2.78;;;10.60;99.90;;;;;;5058133;28;20730;-91
2021/06/13 08:43:23;;;;;;;3.70;2.80;;;10.50;99.90;;;;;;5062280;28;20376;-92
2021/06/13 08:45:54;;;;;;;4.65;2.78;;;10.50;99.90;;;;;;5059324;28;20360;-88
2021/06/13 08:48:25;;;;;;;4.82;2.88;;;10.50;99.90;;;;;;5062666;28;20379;-90
2021/06/13 08:50:52;;;;;;;3.25;2.40;;;10.50;99.90;;;;;;5064562;28;20432;-91
2021/06/13 08:53:19;;;;;;;4.38;2.50;;;10.50;99.90;;;;;;5060018;28;20418;-87
2021/06/13 08:55:46;;;;;;;4.28;2.25;;;10.40;99.90;;;;;;5058413;28;20402;-92
2021/06/13 08:58:14;;;;;;;4.35;2.40;;;10.40;99.90;;;;;;5059222;28;20407;-92
2021/06/13 09:00:42;;;;;;;4.03;2.20;;;10.40;99.90;;;;;;5054512;28;20419;-91
2021/06/13 09:03:09;;;;;;;3.65;2.05;;;10.30;99.90;;;;;;5056542;28;20943;-93
2021/06/13 09:05:36;;;;;;;2.28;2.00;;;10.30;99.90;;;;;;5051610;28;20387;-91
2021/06/13 09:08:14;;;;;;;3.00;2.20;;;10.20;99.90;;;;;;5058460;28;20435;-94
2021/06/13 09:10:44;;;;;;;3.33;1.90;;;10.20;99.90;;;;;;5052073;28;20388;-95
2021/06/13 09:13:23;;;;;;;2.80;1.83;;;10.20;99.90;;;;;;5054384;28;20408;-91
2021/06/13 09:16:00;;;;;;;5.53;2.28;;;10.20;99.90;;;;;;5057561;28;20391;-95
2021/06/13 09:18:28;;;;;;;3.15;2.25;;;10.10;99.90;;;;;;5070966;28;20415;-95
2021/06/13 09:20:56;;;;;;;5.63;2.45;;;10.10;99.90;;;;;;5051539;28;20758;-93
2021/06/13 09:23:24;;;;;;;3.75;2.50;;;10.20;99.90;;;;;;5054056;28;20410;-89
2021/06/13 09:25:59;;;;;;;4.10;2.60;;;10.30;99.90;;;;;;5048271;28;21225;-91
2021/06/13 09:28:28;;;;;;;5.43;2.80;;;10.30;99.90;;;;;;5050510;28;20487;-90
2021/06/13 09:30:55;;;;;;;4.45;2.85;;;10.20;99.90;;;;;;5050347;28;20466;-89
2021/06/13 09:33:27;;;;;;;4.03;2.50;;;10.20;99.90;;;;;;5054201;28;20746;-88
2021/06/13 09:35:56;;;;;;;3.70;2.60;;;10.20;99.90;;;;;;5050428;28;20423;-92
2021/06/13 09:38:34;;;;;;;4.70;2.30;;;10.20;99.90;;;;;;5052780;28;20412;-90
2021/06/13 09:41:03;;;;;;;2.10;1.80;;;10.10;99.90;;;;;;5050812;28;20437;-89
2021/06/13 09:43:38;;;;;;;3.67;1.90;;;10.10;99.90;;;;;;5050436;28;20441;-89
2021/06/13 09:46:12;;;;;;;4.68;2.10;;;10.00;99.90;;;;;;5043264;28;20403;-87
2021/06/13 09:48:43;;;;;;;1.63;1.38;;;10.00;99.90;;;;;;5050275;28;20898;-87
2021/06/13 09:51:13;;;;;;;2.78;1.90;;;9.90;99.90;;;;;;5047589;28;20400;-86
2021/06/13 09:53:51;;;;;;;2.85;1.80;;;9.90;99.90;;;;;;5042702;28;20774;-86
2021/06/13 09:56:25;;;;;;;2.20;1.95;;;9.90;99.90;;;;;;5063515;28;20494;-88
2021/06/13 09:58:56;;;;;;;6.13;3.15;;;9.80;99.90;;;;;;5048648;28;20419;-92
2021/06/13 10:01:30;;;;;;;4.75;2.92;;;9.80;99.90;;;;;;5048727;28;20402;-89
2021/06/13 10:03:58;;;;;;;4.47;3.08;;;9.70;99.90;;;;;;5045126;28;20395;-86
2021/06/13 10:06:33;;;;;;;3.20;2.88;;;9.70;99.90;;;;;;5052486;28;20463;-87
2021/06/13 10:09:01;;;;;;;4.00;2.40;;;9.70;99.90;;;;;;5052084;28;20419;-88
2021/06/13 10:11:28;;;;;;;5.57;2.33;;;9.60;99.90;;;;;;5048207;28;20398;-89
2021/06/13 10:14:00;;;;;;;3.33;2.37;;;9.60;99.90;;;;;;5032839;28;20382;-89
2021/06/13 10:16:32;;;;;;;3.47;2.47;;;9.50;99.90;;;;;;5044992;28;20806;-89
2021/06/13 10:19:08;;;;;;;4.07;3.10;;;9.50;99.90;;;;;;5051899;28;20395;-90
2021/06/13 10:21:48;;;;;;;4.43;3.13;;;9.50;99.90;;;;;;5051534;28;20952;-89
2021/06/13 10:24:20;;;;;;;4.17;3.70;;;9.50;99.90;;;;;;5056171;28;20469;-88
2021/06/13 10:26:49;;;;;;;6.47;4.40;;;9.50;99.90;;;;;;5049450;28;20435;-87
2021/06/13 10:29:17;;;;;;;5.90;4.53;;;9.40;99.90;;;;;;5046648;28;20410;-90
2021/06/13 10:31:47;;;;;;;6.68;4.82;;;9.40;99.90;;;;;;5044244;28;20396;-89
2021/06/13 10:34:15;;;;;;;9.00;5.23;;;9.40;99.90;;;;;;5044159;28;20475;-89
2021/06/13 10:36:43;;;;;;;7.40;5.50;;;9.40;99.90;;;;;;5049752;28;20384;-86
2021/06/13 10:39:17;;;;;;;6.97;5.05;;;9.30;99.90;;;;;;5048636;28;20403;-87
2021/06/13 10:41:45;;;;;;;6.18;5.07;;;9.30;99.90;;;;;;5042618;28;20389;-90
2021/06/13 10:44:19;;;;;;;9.23;6.15;;;9.20;99.90;;;;;;5050484;28;20388;-88
2021/06/13 10:46:50;;;;;;;8.93;6.13;;;9.20;99.90;;;;;;5048912;28;20411;-87
2021/06/13 10:49:35;;;;;;;8.85;5.85;;;9.20;99.90;;;;;;5050208;28;20410;-89
2021/06/13 10:52:25;;;;;;;9.18;5.43;;;9.20;99.90;;;;;;5048661;28;20473;-85
2021/06/13 10:54:53;;;;;;;7.20;5.13;;;9.10;99.90;;;;;;5049352;28;20399;-91
2021/06/13 10:57:22;;;;;;;5.63;5.00;;;9.10;99.90;;;;;;5138314;22;20575;-88
2021/06/13 11:00:20;;;;;;;6.05;4.35;;;9.10;99.90;;;;;;4991264;28;20417;-89
2021/06/13 11:02:50;;;;;;;7.03;5.60;;;9.10;99.90;;;;;;5000719;28;20403;-89
2021/06/13 11:05:36;;;;;;;7.90;5.33;;;9.10;99.90;;;;;;5008382;28;20395;-88
2021/06/13 11:08:03;;;;;;;6.07;4.47;;;9.00;99.90;;;;;;4994688;28;20864;-90
2021/06/13 11:10:32;;;;;;;4.45;3.55;;;9.00;99.90;;;;;;5008079;28;20451;-89
2021/06/13 11:13:09;;;;;;;4.82;4.00;;;8.90;99.90;;;;;;4993516;28;20886;-88
2021/06/13 11:15:39;;;;;;;5.50;4.13;;;8.90;99.90;;;;;;5000549;28;21757;-87
2021/06/13 11:18:16;;;;;;;4.40;3.90;;;8.90;99.90;;;;;;5014128;28;20416;-91
2021/06/13 11:20:49;;;;;;;5.32;3.60;;;8.80;99.90;;;;;;5014321;28;20458;-89
2021/06/13 11:23:22;;;;;;;5.25;4.07;;;8.80;99.90;;;;;;5015802;28;20418;-87
2021/06/13 11:25:56;;;;;;;5.83;4.83;;;8.80;99.90;;;;;;5000546;28;20392;-89
2021/06/13 11:28:30;;;;;;;6.27;5.40;;;8.80;99.90;;;;;;4993742;28;21460;-92
2021/06/13 11:31:12;;;;;;;7.72;6.20;;;8.80;99.90;;;;;;4993470;28;20385;-91
2021/06/13 11:33:39;;;;;;;6.43;5.47;;;8.80;99.90;;;;;;4993429;28;20864;-90
2021/06/13 11:36:33;;;;;;;8.15;5.00;;;8.80;99.90;;;;;;4993567;28;20416;-90
2021/06/13 11:39:05;;;;;;;8.87;6.10;;;8.80;99.90;;;;;;4995798;28;20416;-92
2021/06/13 11:41:45;;;;;;;6.07;5.47;;;8.80;99.90;;;;;;5027392;28;20371;-90
2021/06/13 11:44:22;;;;;;;6.88;4.95;;;8.80;99.90;;;;;;5014418;28;20394;-90
2021/06/13 11:46:53;;;;;;;15.32;10.95;;;8.70;99.90;;;;;;5016425;28;20366;-89
2021/06/13 11:49:41;;;;;;;13.98;10.45;;;8.70;99.90;;;;;;5016932;28;20461;-92
2021/06/13 11:52:08;;;;;;;9.02;7.28;;;8.70;99.90;;;;;;5012482;28;20382;-94
2021/06/13 11:54:44;;;;;;;9.90;5.95;;;8.70;99.90;;;;;;5016813;28;20374;-88
2021/06/13 11:57:14;;;;;;;9.52;6.90;;;8.70;99.90;;;;;;5031825;28;20426;-94
2021/06/13 11:59:46;;;;;;;7.50;6.07;;;8.60;99.90;;;;;;5014588;28;20383;-92
2021/06/13 12:02:17;;;;;;;10.13;6.93;;;8.60;99.90;;;;;;5014112;28;20383;-94
2021/06/13 12:04:46;;;;;;;10.30;6.53;;;8.70;99.90;;;;;;5016478;28;20398;-91
2021/06/13 12:07:17;;;;;;;8.97;6.27;;;8.70;99.90;;;;;;5014436;28;20386;-90
2021/06/13 12:09:45;;;;;;;14.40;9.52;;;8.60;99.90;;;;;;5005736;28;20915;-95
2021/06/13 12:12:14;;;;;;;12.18;9.07;;;8.60;99.90;;;;;;5012390;28;20734;-90
2021/06/13 12:14:45;;;;;;;14.05;10.70;;;8.60;99.90;;;;;;5014281;28;20399;-87
2021/06/13 12:17:16;;;;;;;5.85;5.10;;;8.60;99.90;;;;;;5002907;28;20410;-88
2021/06/13 12:19:51;;;;;;;8.55;6.15;;;8.60;99.90;;;;;;5014716;28;20401;-92
2021/06/13 12:27:42;;;;;;;7.70;5.43;;;8.60;99.90;;;;;;5015900;28;20375;-90
2021/06/13 12:30:24;;;;;;;6.33;4.60;;;8.60;99.90;;;;;;5016109;28;20387;-89
2021/06/13 12:32:56;;;;;;;4.43;3.40;;;8.60;99.90;;;;;;5031995;28;20449;-89
2021/06/13 12:35:27;;;;;;;4.22;3.40;;;8.60;99.90;;;;;;5014925;28;20379;-92
2021/06/13 12:38:06;;;;;;;5.05;3.10;;;8.50;99.90;;;;;;5014726;28;20502;-91
2021/06/13 12:40:44;;;;;;;3.83;2.80;;;8.60;99.90;;;;;;5015466;28;20390;-89
2021/06/13 12:43:13;;;;;;;3.28;2.50;;;8.60;99.90;;;;;;5016015;28;20379;-90
2021/06/13 12:45:42;;;;;;;3.22;2.88;;;8.50;99.90;;;;;;5015751;28;20442;-91
2021/06/13 12:48:11;;;;;;;3.70;2.85;;;8.50;99.90;;;;;;5014234;28;20391;-90
2021/06/13 12:50:44;;;;;;;4.65;2.53;;;8.50;99.90;;;;;;5014783;28;20411;-94
2021/06/13 12:53:15;;;;;;;3.33;2.35;;;8.50;99.90;;;;;;5014359;28;20498;-90
2021/06/13 12:55:50;;;;;;;2.07;1.87;;;8.60;99.90;;;;;;5015249;28;20457;-89
2021/06/13 12:58:22;;;;;;;4.65;2.20;;;8.50;99.90;;;;;;5013321;28;20517;-91
2021/06/13 13:00:50;;;;;;;2.75;2.20;;;8.50;99.90;;;;;;5000341;28;20392;-91
2021/06/13 13:03:21;;;;;;;3.70;2.20;;;8.50;99.90;;;;;;4997347;28;20868;-91
2021/06/13 13:06:08;;;;;;;3.47;2.30;;;8.40;99.90;;;;;;4998781;28;20467;-88
2021/06/13 13:08:54;;;;;;;3.25;2.47;;;8.40;99.90;;;;;;5016822;28;20391;-93